sensor_id;sensor_type;location;lat;lon;timestamp;temperature;humidity
41395;DHT22;27136;53.810;8.886;2022-07-12T00:01:29;16.30;99.90
41395;DHT22;27136;53.810;8.886;2022-07-12T00:03:54;16.30;99.90
41395;DHT22;27136;53.810;8.886;2022-07-12T00:06:20;16.30;99.90
41395;DHT22;27136;53.810;8.886;2022-07-12T00:08:45;16.30;99.90
41395;DHT22;27136;53.810;8.886;2022-07-12T00:11:11;16.30;99.90
41395;DHT22;27136;53.810;8.886;2022-07-12T00:13:36;16.30;99.90
41395;DHT22;27136;53.810;8.886;2022-07-12T00:16:02;16.20;99.90
41395;DHT22;27136;53.810;8.886;2022-07-12T00:18:28;16.20;99.90
41395;DHT22;27136;53.810;8.886;2022-07-12T00:20:53;16.20;99.90
41395;DHT22;27136;53.810;8.886;2022-07-12T00:23:19;16.20;99.90
41395;DHT22;27136;53.810;8.886;2022-07-12T00:25:45;16.20;99.90
41395;DHT22;27136;53.810;8.886;2022-07-12T00:28:11;16.10;99.90
41395;DHT22;27136;53.810;8.886;2022-07-12T00:30:37;16.20;99.90
41395;DHT22;27136;53.810;8.886;2022-07-12T00:33:02;16.10;99.90
41395;DHT22;27136;53.810;8.886;2022-07-12T00:35:28;16.10;99.90
41395;DHT22;27136;53.810;8.886;2022-07-12T00:37:53;16.10;99.90
41395;DHT22;27136;53.810;8.886;2022-07-12T00:40:19;16.10;99.90
41395;DHT22;27136;53.810;8.886;2022-07-12T00:42:44;16.10;99.90
41395;DHT22;27136;53.810;8.886;2022-07-12T00:45:10;16.10;99.90
41395;DHT22;27136;53.810;8.886;2022-07-12T00:47:37;16.10;99.90
41395;DHT22;27136;53.810;8.886;2022-07-12T00:50:17;16.00;99.90
41395;DHT22;27136;53.810;8.886;2022-07-12T00:52:44;16.10;99.90
41395;DHT22;27136;53.810;8.886;2022-07-12T00:55:11;16.00;99.90
41395;DHT22;27136;53.810;8.886;2022-07-12T00:57:38;16.10;99.90
41395;DHT22;27136;53.810;8.886;2022-07-12T01:00:07;16.00;99.90
41395;DHT22;27136;53.810;8.886;2022-07-12T01:02:36;16.10;99.90
41395;DHT22;27136;53.810;8.886;2022-07-12T01:05:04;16.00;99.90
41395;DHT22;27136;53.810;8.886;2022-07-12T01:07:30;16.10;99.90
41395;DHT22;27136;53.810;8.886;2022-07-12T01:09:56;16.00;99.90
41395;DHT22;27136;53.810;8.886;2022-07-12T01:12:24;16.00;99.90
41395;DHT22;27136;53.810;8.886;2022-07-12T01:14:50;16.00;99.90
41395;DHT22;27136;53.810;8.886;2022-07-12T01:17:23;16.00;99.90
41395;DHT22;27136;53.810;8.886;2022-07-12T01:19:51;16.00;99.90
41395;DHT22;27136;53.810;8.886;2022-07-12T01:22:17;16.00;99.90
41395;DHT22;27136;53.810;8.886;2022-07-12T01:24:44;16.00;99.90
41395;DHT22;27136;53.810;8.886;2022-07-12T01:27:11;16.00;99.90
41395;DHT22;27136;53.810;8.886;2022-07-12T01:29:36;16.00;99.90
41395;DHT22;27136;53.810;8.886;2022-07-12T01:32:03;16.00;99.90
41395;DHT22;27136;53.810;8.886;2022-07-12T01:34:48;16.00;99.90
41395;DHT22;27136;53.810;8.886;2022-07-12T01:37:15;16.00;99.90
41395;DHT22;27136;53.810;8.886;2022-07-12T01:39:42;16.00;99.90
41395;DHT22;27136;53.810;8.886;2022-07-12T01:42:08;16.00;99.90
41395;DHT22;27136;53.810;8.886;2022-07-12T01:44:34;16.00;99.90
41395;DHT22;27136;53.810;8.886;2022-07-12T01:47:00;16.00;99.90
41395;DHT22;27136;53.810;8.886;2022-07-12T01:49:25;16.00;99.90
41395;DHT22;27136;53.810;8.886;2022-07-12T01:51:51;16.00;99.90
41395;DHT22;27136;53.810;8.886;2022-07-12T01:54:16;16.00;99.90
41395;DHT22;27136;53.810;8.886;2022-07-12T01:56:42;16.00;99.90
41395;DHT22;27136;53.810;8.886;2022-07-12T01:59:09;16.00;99.90
41395;DHT22;27136;53.810;8.886;2022-07-12T02:01:35;16.00;99.90
41395;DHT22;27136;53.810;8.886;2022-07-12T02:04:03;16.10;99.90
41395;DHT22;27136;53.810;8.886;2022-07-12T02:06:29;16.00;99.90
41395;DHT22;27136;53.810;8.886;2022-07-12T02:08:55;16.00;99.90
41395;DHT22;27136;53.810;8.886;2022-07-12T02:11:20;16.00;99.90
41395;DHT22;27136;53.810;8.886;2022-07-12T02:13:46;15.90;99.90
41395;DHT22;27136;53.810;8.886;2022-07-12T02:16:11;15.90;99.90
41395;DHT22;27136;53.810;8.886;2022-07-12T02:18:37;15.90;99.90
41395;DHT22;27136;53.810;8.886;2022-07-12T02:21:03;15.90;99.90
41395;DHT22;27136;53.810;8.886;2022-07-12T02:23:28;15.90;99.90
41395;DHT22;27136;53.810;8.886;2022-07-12T02:25:54;15.90;99.90
41395;DHT22;27136;53.810;8.886;2022-07-12T02:28:19;15.90;99.90
41395;DHT22;27136;53.810;8.886;2022-07-12T02:30:45;15.90;99.90
41395;DHT22;27136;53.810;8.886;2022-07-12T02:33:12;15.90;99.90
41395;DHT22;27136;53.810;8.886;2022-07-12T02:35:41;15.90;99.90
41395;DHT22;27136;53.810;8.886;2022-07-12T02:38:07;15.90;99.90
41395;DHT22;27136;53.810;8.886;2022-07-12T02:40:32;15.90;99.90
41395;DHT22;27136;53.810;8.886;2022-07-12T02:43:16;15.90;99.90
41395;DHT22;27136;53.810;8.886;2022-07-12T02:45:42;15.90;99.90
41395;DHT22;27136;53.810;8.886;2022-07-12T02:48:07;16.00;99.90
41395;DHT22;27136;53.810;8.886;2022-07-12T02:50:36;16.00;99.90
41395;DHT22;27136;53.810;8.886;2022-07-12T02:53:03;16.00;99.90
41395;DHT22;27136;53.810;8.886;2022-07-12T02:55:28;16.00;99.90
41395;DHT22;27136;53.810;8.886;2022-07-12T02:57:54;16.10;99.90
41395;DHT22;27136;53.810;8.886;2022-07-12T03:00:20;16.00;99.90
41395;DHT22;27136;53.810;8.886;2022-07-12T03:02:45;16.00;99.90
41395;DHT22;27136;53.810;8.886;2022-07-12T03:05:11;16.10;99.90
41395;DHT22;27136;53.810;8.886;2022-07-12T03:07:36;16.10;99.90
41395;DHT22;27136;53.810;8.886;2022-07-12T03:10:03;16.10;99.90
41395;DHT22;27136;53.810;8.886;2022-07-12T03:12:29;16.10;99.90
41395;DHT22;27136;53.810;8.886;2022-07-12T03:14:55;16.10;99.90
41395;DHT22;27136;53.810;8.886;2022-07-12T03:17:21;16.10;99.90
41395;DHT22;27136;53.810;8.886;2022-07-12T03:19:46;16.10;99.90
41395;DHT22;27136;53.810;8.886;2022-07-12T03:22:12;16.10;99.90
41395;DHT22;27136;53.810;8.886;2022-07-12T03:24:37;16.10;99.90
41395;DHT22;27136;53.810;8.886;2022-07-12T03:27:03;16.10;99.90
41395;DHT22;27136;53.810;8.886;2022-07-12T03:29:29;16.10;99.90
41395;DHT22;27136;53.810;8.886;2022-07-12T03:31:54;16.10;99.90
41395;DHT22;27136;53.810;8.886;2022-07-12T03:34:20;16.10;99.90
41395;DHT22;27136;53.810;8.886;2022-07-12T03:36:45;16.10;99.90
41395;DHT22;27136;53.810;8.886;2022-07-12T03:39:11;16.10;99.90
41395;DHT22;27136;53.810;8.886;2022-07-12T03:41:36;16.10;99.90
41395;DHT22;27136;53.810;8.886;2022-07-12T03:44:02;16.10;99.90
41395;DHT22;27136;53.810;8.886;2022-07-12T03:46:27;16.10;99.90
41395;DHT22;27136;53.810;8.886;2022-07-12T03:48:53;16.10;99.90
41395;DHT22;27136;53.810;8.886;2022-07-12T03:51:19;16.10;99.90
41395;DHT22;27136;53.810;8.886;2022-07-12T03:53:44;16.10;99.90
41395;DHT22;27136;53.810;8.886;2022-07-12T03:56:10;16.10;99.90
41395;DHT22;27136;53.810;8.886;2022-07-12T03:58:55;16.20;99.90
41395;DHT22;27136;53.810;8.886;2022-07-12T04:01:21;16.20;99.90
41395;DHT22;27136;53.810;8.886;2022-07-12T04:03:46;16.20;99.90
41395;DHT22;27136;53.810;8.886;2022-07-12T04:06:12;16.20;99.90
41395;DHT22;27136;53.810;8.886;2022-07-12T04:08:37;16.30;99.90
41395;DHT22;27136;53.810;8.886;2022-07-12T04:11:05;16.20;99.90
41395;DHT22;27136;53.810;8.886;2022-07-12T04:13:30;16.30;99.90
41395;DHT22;27136;53.810;8.886;2022-07-12T04:15:57;16.30;99.90
41395;DHT22;27136;53.810;8.886;2022-07-12T04:18:24;16.30;99.90
41395;DHT22;27136;53.810;8.886;2022-07-12T04:20:49;16.30;99.90
41395;DHT22;27136;53.810;8.886;2022-07-12T04:23:15;16.30;99.90
41395;DHT22;27136;53.810;8.886;2022-07-12T04:25:41;16.30;99.90
41395;DHT22;27136;53.810;8.886;2022-07-12T04:28:06;16.30;99.90
41395;DHT22;27136;53.810;8.886;2022-07-12T04:30:32;16.30;99.90
41395;DHT22;27136;53.810;8.886;2022-07-12T04:32:57;16.30;99.90
41395;DHT22;27136;53.810;8.886;2022-07-12T04:35:23;16.30;99.90
41395;DHT22;27136;53.810;8.886;2022-07-12T04:37:49;16.30;99.90
41395;DHT22;27136;53.810;8.886;2022-07-12T04:40:15;16.40;99.90
41395;DHT22;27136;53.810;8.886;2022-07-12T04:42:40;16.30;99.90
41395;DHT22;27136;53.810;8.886;2022-07-12T04:45:06;16.30;99.90
41395;DHT22;27136;53.810;8.886;2022-07-12T04:47:35;16.30;99.90
41395;DHT22;27136;53.810;8.886;2022-07-12T04:50:06;16.30;99.90
41395;DHT22;27136;53.810;8.886;2022-07-12T04:52:32;16.40;99.90
41395;DHT22;27136;53.810;8.886;2022-07-12T04:54:58;16.40;99.90
41395;DHT22;27136;53.810;8.886;2022-07-12T04:57:23;16.40;99.90
41395;DHT22;27136;53.810;8.886;2022-07-12T04:59:49;16.40;99.90
41395;DHT22;27136;53.810;8.886;2022-07-12T05:02:15;16.40;99.90
41395;DHT22;27136;53.810;8.886;2022-07-12T05:04:40;16.40;99.90
41395;DHT22;27136;53.810;8.886;2022-07-12T05:07:06;16.40;99.90
41395;DHT22;27136;53.810;8.886;2022-07-12T05:09:31;16.50;99.90
41395;DHT22;27136;53.810;8.886;2022-07-12T05:11:57;16.50;99.90
41395;DHT22;27136;53.810;8.886;2022-07-12T05:14:22;16.40;99.90
41395;DHT22;27136;53.810;8.886;2022-07-12T05:16:48;16.50;99.90
41395;DHT22;27136;53.810;8.886;2022-07-12T05:19:14;16.50;99.90
41395;DHT22;27136;53.810;8.886;2022-07-12T05:21:41;16.50;99.90
41395;DHT22;27136;53.810;8.886;2022-07-12T05:24:07;16.50;99.90
41395;DHT22;27136;53.810;8.886;2022-07-12T05:29:09;16.50;99.90
41395;DHT22;27136;53.810;8.886;2022-07-12T05:31:35;16.50;99.90
41395;DHT22;27136;53.810;8.886;2022-07-12T05:34:01;16.50;99.90
41395;DHT22;27136;53.810;8.886;2022-07-12T05:36:27;16.50;99.90
41395;DHT22;27136;53.810;8.886;2022-07-12T05:38:52;16.50;99.90
41395;DHT22;27136;53.810;8.886;2022-07-12T05:41:18;16.50;99.90
41395;DHT22;27136;53.810;8.886;2022-07-12T05:43:43;16.50;99.90
41395;DHT22;27136;53.810;8.886;2022-07-12T05:46:12;16.50;99.90
41395;DHT22;27136;53.810;8.886;2022-07-12T05:48:38;16.50;99.90
41395;DHT22;27136;53.810;8.886;2022-07-12T05:51:04;16.50;99.90
41395;DHT22;27136;53.810;8.886;2022-07-12T05:53:48;16.50;99.90
41395;DHT22;27136;53.810;8.886;2022-07-12T05:56:14;16.50;99.90
41395;DHT22;27136;53.810;8.886;2022-07-12T05:58:40;16.50;99.90
41395;DHT22;27136;53.810;8.886;2022-07-12T06:01:06;16.50;99.90
41395;DHT22;27136;53.810;8.886;2022-07-12T06:03:32;16.50;99.90
41395;DHT22;27136;53.810;8.886;2022-07-12T06:05:58;16.50;99.90
41395;DHT22;27136;53.810;8.886;2022-07-12T06:08:23;16.60;99.90
41395;DHT22;27136;53.810;8.886;2022-07-12T06:10:49;16.60;99.90
41395;DHT22;27136;53.810;8.886;2022-07-12T06:13:14;16.50;99.90
41395;DHT22;27136;53.810;8.886;2022-07-12T06:15:40;16.60;99.90
41395;DHT22;27136;53.810;8.886;2022-07-12T06:18:06;16.70;99.90
41395;DHT22;27136;53.810;8.886;2022-07-12T06:20:32;16.70;99.90
41395;DHT22;27136;53.810;8.886;2022-07-12T06:22:57;16.80;99.90
41395;DHT22;27136;53.810;8.886;2022-07-12T06:25:23;16.80;99.90
41395;DHT22;27136;53.810;8.886;2022-07-12T06:27:49;16.80;99.90
41395;DHT22;27136;53.810;8.886;2022-07-12T06:30:18;16.90;99.90
41395;DHT22;27136;53.810;8.886;2022-07-12T06:32:45;16.80;99.90
41395;DHT22;27136;53.810;8.886;2022-07-12T06:35:12;16.90;99.90
41395;DHT22;27136;53.810;8.886;2022-07-12T06:37:38;16.90;99.90
41395;DHT22;27136;53.810;8.886;2022-07-12T06:40:04;17.00;99.90
41395;DHT22;27136;53.810;8.886;2022-07-12T06:42:30;17.00;99.90
41395;DHT22;27136;53.810;8.886;2022-07-12T06:44:55;17.00;99.90
41395;DHT22;27136;53.810;8.886;2022-07-12T06:47:21;17.10;99.90
41395;DHT22;27136;53.810;8.886;2022-07-12T06:49:47;17.10;99.90
41395;DHT22;27136;53.810;8.886;2022-07-12T06:52:12;17.10;99.90
41395;DHT22;27136;53.810;8.886;2022-07-12T06:54:38;17.20;99.90
41395;DHT22;27136;53.810;8.886;2022-07-12T06:57:04;17.10;99.90
41395;DHT22;27136;53.810;8.886;2022-07-12T06:59:29;17.10;99.90
41395;DHT22;27136;53.810;8.886;2022-07-12T07:01:55;17.10;99.90
41395;DHT22;27136;53.810;8.886;2022-07-12T07:04:23;17.20;99.90
41395;DHT22;27136;53.810;8.886;2022-07-12T07:06:49;17.10;99.90
41395;DHT22;27136;53.810;8.886;2022-07-12T07:09:15;17.20;99.90
41395;DHT22;27136;53.810;8.886;2022-07-12T07:11:40;17.20;99.90
41395;DHT22;27136;53.810;8.886;2022-07-12T07:14:06;17.20;99.90
41395;DHT22;27136;53.810;8.886;2022-07-12T07:16:32;17.20;99.90
41395;DHT22;27136;53.810;8.886;2022-07-12T07:18:57;17.20;99.90
41395;DHT22;27136;53.810;8.886;2022-07-12T07:21:23;17.30;99.90
41395;DHT22;27136;53.810;8.886;2022-07-12T07:23:50;17.30;99.90
41395;DHT22;27136;53.810;8.886;2022-07-12T07:26:15;17.20;99.90
41395;DHT22;27136;53.810;8.886;2022-07-12T07:28:41;17.20;99.90
41395;DHT22;27136;53.810;8.886;2022-07-12T07:31:25;17.30;99.90
41395;DHT22;27136;53.810;8.886;2022-07-12T07:33:51;17.30;99.90
41395;DHT22;27136;53.810;8.886;2022-07-12T07:36:16;17.40;99.90
41395;DHT22;27136;53.810;8.886;2022-07-12T07:38:42;17.40;99.90
41395;DHT22;27136;53.810;8.886;2022-07-12T07:41:08;17.30;99.90
41395;DHT22;27136;53.810;8.886;2022-07-12T07:43:33;17.30;99.90
41395;DHT22;27136;53.810;8.886;2022-07-12T07:46:02;17.30;99.90
41395;DHT22;27136;53.810;8.886;2022-07-12T07:48:28;17.30;99.90
41395;DHT22;27136;53.810;8.886;2022-07-12T07:50:54;17.30;99.90
41395;DHT22;27136;53.810;8.886;2022-07-12T07:53:19;17.40;99.90
41395;DHT22;27136;53.810;8.886;2022-07-12T07:55:45;17.50;99.90
41395;DHT22;27136;53.810;8.886;2022-07-12T07:58:10;17.40;99.90
41395;DHT22;27136;53.810;8.886;2022-07-12T08:00:36;17.30;99.90
41395;DHT22;27136;53.810;8.886;2022-07-12T08:03:01;17.40;99.90
41395;DHT22;27136;53.810;8.886;2022-07-12T08:05:27;17.40;99.90
41395;DHT22;27136;53.810;8.886;2022-07-12T08:07:53;17.50;99.90
41395;DHT22;27136;53.810;8.886;2022-07-12T08:10:18;17.50;99.90
41395;DHT22;27136;53.810;8.886;2022-07-12T08:12:44;17.60;99.90
41395;DHT22;27136;53.810;8.886;2022-07-12T08:15:10;17.70;99.90
41395;DHT22;27136;53.810;8.886;2022-07-12T08:17:35;17.80;99.90
41395;DHT22;27136;53.810;8.886;2022-07-12T08:20:03;17.80;99.90
41395;DHT22;27136;53.810;8.886;2022-07-12T08:22:29;17.80;99.90
41395;DHT22;27136;53.810;8.886;2022-07-12T08:24:54;17.90;99.90
41395;DHT22;27136;53.810;8.886;2022-07-12T08:27:20;17.90;99.90
41395;DHT22;27136;53.810;8.886;2022-07-12T08:32:21;17.90;99.90
41395;DHT22;27136;53.810;8.886;2022-07-12T08:34:47;17.90;99.90
41395;DHT22;27136;53.810;8.886;2022-07-12T08:37:12;17.90;99.90
41395;DHT22;27136;53.810;8.886;2022-07-12T08:39:38;18.00;99.90
41395;DHT22;27136;53.810;8.886;2022-07-12T08:42:07;18.10;99.90
41395;DHT22;27136;53.810;8.886;2022-07-12T08:44:33;18.10;99.90
41395;DHT22;27136;53.810;8.886;2022-07-12T08:46:58;18.20;99.90
41395;DHT22;27136;53.810;8.886;2022-07-12T08:49:24;18.30;99.90
41395;DHT22;27136;53.810;8.886;2022-07-12T08:51:49;18.30;99.90
41395;DHT22;27136;53.810;8.886;2022-07-12T08:54:15;18.40;99.90
41395;DHT22;27136;53.810;8.886;2022-07-12T08:56:43;18.40;99.90
41395;DHT22;27136;53.810;8.886;2022-07-12T08:59:10;18.50;99.90
41395;DHT22;27136;53.810;8.886;2022-07-12T09:01:39;18.50;99.90
41395;DHT22;27136;53.810;8.886;2022-07-12T09:04:16;18.60;99.90
41395;DHT22;27136;53.810;8.886;2022-07-12T09:06:42;18.70;99.90
41395;DHT22;27136;53.810;8.886;2022-07-12T09:09:08;18.70;99.90
41395;DHT22;27136;53.810;8.886;2022-07-12T09:11:38;18.70;99.90
41395;DHT22;27136;53.810;8.886;2022-07-12T09:14:04;18.70;99.90
41395;DHT22;27136;53.810;8.886;2022-07-12T09:16:30;18.80;99.90
41395;DHT22;27136;53.810;8.886;2022-07-12T09:19:25;18.90;99.90
41395;DHT22;27136;53.810;8.886;2022-07-12T09:21:52;19.00;99.90
41395;DHT22;27136;53.810;8.886;2022-07-12T09:24:20;18.90;99.90
41395;DHT22;27136;53.810;8.886;2022-07-12T09:26:46;18.90;99.90
41395;DHT22;27136;53.810;8.886;2022-07-12T09:29:12;18.90;99.90
41395;DHT22;27136;53.810;8.886;2022-07-12T09:31:49;18.80;99.90
41395;DHT22;27136;53.810;8.886;2022-07-12T09:34:34;19.00;99.90
41395;DHT22;27136;53.810;8.886;2022-07-12T09:37:19;19.00;99.90
41395;DHT22;27136;53.810;8.886;2022-07-12T09:39:45;19.10;99.90
41395;DHT22;27136;53.810;8.886;2022-07-12T09:42:12;19.00;99.90
41395;DHT22;27136;53.810;8.886;2022-07-12T09:44:41;19.10;99.90
41395;DHT22;27136;53.810;8.886;2022-07-12T09:47:10;19.20;99.90
41395;DHT22;27136;53.810;8.886;2022-07-12T09:49:41;19.40;99.90
41395;DHT22;27136;53.810;8.886;2022-07-12T09:52:11;19.70;99.90
41395;DHT22;27136;53.810;8.886;2022-07-12T09:54:40;19.80;99.90
41395;DHT22;27136;53.810;8.886;2022-07-12T09:57:20;19.80;99.90
41395;DHT22;27136;53.810;8.886;2022-07-12T09:59:47;19.90;99.90
41395;DHT22;27136;53.810;8.886;2022-07-12T10:02:14;20.10;99.90
41395;DHT22;27136;53.810;8.886;2022-07-12T10:04:41;20.10;99.90
41395;DHT22;27136;53.810;8.886;2022-07-12T10:07:10;20.20;99.90
41395;DHT22;27136;53.810;8.886;2022-07-12T10:09:40;20.20;99.90
41395;DHT22;27136;53.810;8.886;2022-07-12T10:12:07;20.20;99.90
41395;DHT22;27136;53.810;8.886;2022-07-12T10:14:34;20.30;99.90
41395;DHT22;27136;53.810;8.886;2022-07-12T10:16:59;20.30;99.90
41395;DHT22;27136;53.810;8.886;2022-07-12T10:19:30;20.40;99.90
41395;DHT22;27136;53.810;8.886;2022-07-12T10:21:59;20.40;99.90
41395;DHT22;27136;53.810;8.886;2022-07-12T10:29:43;20.60;99.90
41395;DHT22;27136;53.810;8.886;2022-07-12T10:32:32;20.80;99.90
41395;DHT22;27136;53.810;8.886;2022-07-12T10:35:02;20.80;99.90
41395;DHT22;27136;53.810;8.886;2022-07-12T10:37:30;20.80;99.90
41395;DHT22;27136;53.810;8.886;2022-07-12T10:45:33;20.80;99.90
41395;DHT22;27136;53.810;8.886;2022-07-12T10:48:05;20.80;99.90
41395;DHT22;27136;53.810;8.886;2022-07-12T10:53:30;21.00;99.90
41395;DHT22;27136;53.810;8.886;2022-07-12T10:56:18;21.10;99.90
41395;DHT22;27136;53.810;8.886;2022-07-12T10:58:48;21.10;99.90
41395;DHT22;27136;53.810;8.886;2022-07-12T11:01:17;21.10;99.90
41395;DHT22;27136;53.810;8.886;2022-07-12T11:03:48;21.10;99.90
41395;DHT22;27136;53.810;8.886;2022-07-12T11:06:23;21.10;99.90
41395;DHT22;27136;53.810;8.886;2022-07-12T11:09:01;21.10;99.90
41395;DHT22;27136;53.810;8.886;2022-07-12T11:11:34;21.10;99.90
41395;DHT22;27136;53.810;8.886;2022-07-12T11:14:02;21.30;99.90
41395;DHT22;27136;53.810;8.886;2022-07-12T11:16:29;21.40;99.90
41395;DHT22;27136;53.810;8.886;2022-07-12T11:18:55;21.40;99.90
41395;DHT22;27136;53.810;8.886;2022-07-12T11:21:22;21.40;99.90
41395;DHT22;27136;53.810;8.886;2022-07-12T11:23:49;21.50;99.90
41395;DHT22;27136;53.810;8.886;2022-07-12T11:26:15;21.60;99.90
41395;DHT22;27136;53.810;8.886;2022-07-12T11:28:43;21.70;99.90
41395;DHT22;27136;53.810;8.886;2022-07-12T11:31:14;21.70;99.90
41395;DHT22;27136;53.810;8.886;2022-07-12T11:33:41;21.70;99.90
41395;DHT22;27136;53.810;8.886;2022-07-12T11:36:09;21.60;99.90
41395;DHT22;27136;53.810;8.886;2022-07-12T11:38:37;21.50;99.90
41395;DHT22;27136;53.810;8.886;2022-07-12T11:41:04;21.50;99.90
41395;DHT22;27136;53.810;8.886;2022-07-12T11:43:31;21.60;99.90
41395;DHT22;27136;53.810;8.886;2022-07-12T11:45:57;21.60;99.90
41395;DHT22;27136;53.810;8.886;2022-07-12T11:48:23;21.50;99.90
41395;DHT22;27136;53.810;8.886;2022-07-12T11:50:51;21.60;99.90
41395;DHT22;27136;53.810;8.886;2022-07-12T11:53:22;21.60;99.90
41395;DHT22;27136;53.810;8.886;2022-07-12T11:55:53;21.70;99.90
41395;DHT22;27136;53.810;8.886;2022-07-12T11:58:20;21.80;99.90
41395;DHT22;27136;53.810;8.886;2022-07-12T12:00:47;21.90;99.90
41395;DHT22;27136;53.810;8.886;2022-07-12T12:03:14;22.00;99.90
41395;DHT22;27136;53.810;8.886;2022-07-12T12:05:41;22.10;99.90
41395;DHT22;27136;53.810;8.886;2022-07-12T12:08:08;22.00;99.90
41395;DHT22;27136;53.810;8.886;2022-07-12T12:10:35;22.10;99.90
41395;DHT22;27136;53.810;8.886;2022-07-12T12:13:02;22.10;99.90
41395;DHT22;27136;53.810;8.886;2022-07-12T12:15:32;22.20;99.90
41395;DHT22;27136;53.810;8.886;2022-07-12T12:18:02;22.20;99.90
41395;DHT22;27136;53.810;8.886;2022-07-12T12:20:36;22.30;99.90
41395;DHT22;27136;53.810;8.886;2022-07-12T12:23:06;22.50;99.90
41395;DHT22;27136;53.810;8.886;2022-07-12T12:25:39;22.60;99.90
41395;DHT22;27136;53.810;8.886;2022-07-12T12:28:05;22.70;99.90
41395;DHT22;27136;53.810;8.886;2022-07-12T12:30:33;23.00;99.90
41395;DHT22;27136;53.810;8.886;2022-07-12T12:32:59;23.00;99.90
41395;DHT22;27136;53.810;8.886;2022-07-12T12:35:37;23.10;99.90
41395;DHT22;27136;53.810;8.886;2022-07-12T12:38:13;23.30;99.90
41395;DHT22;27136;53.810;8.886;2022-07-12T12:40:40;23.30;99.90
41395;DHT22;27136;53.810;8.886;2022-07-12T12:43:13;23.30;99.90
41395;DHT22;27136;53.810;8.886;2022-07-12T12:45:53;23.40;99.90
41395;DHT22;27136;53.810;8.886;2022-07-12T12:48:23;23.50;99.90
41395;DHT22;27136;53.810;8.886;2022-07-12T12:50:51;23.60;99.90
41395;DHT22;27136;53.810;8.886;2022-07-12T12:53:20;23.50;99.90
41395;DHT22;27136;53.810;8.886;2022-07-12T12:55:48;23.50;99.90
41395;DHT22;27136;53.810;8.886;2022-07-12T12:58:15;23.40;99.90
41395;DHT22;27136;53.810;8.886;2022-07-12T13:00:43;23.50;99.90
41395;DHT22;27136;53.810;8.886;2022-07-12T13:03:10;23.50;99.90
41395;DHT22;27136;53.810;8.886;2022-07-12T13:05:36;23.30;99.90
41395;DHT22;27136;53.810;8.886;2022-07-12T13:08:03;23.30;99.90
41395;DHT22;27136;53.810;8.886;2022-07-12T13:10:30;23.10;99.90
41395;DHT22;27136;53.810;8.886;2022-07-12T13:12:57;23.00;99.90
41395;DHT22;27136;53.810;8.886;2022-07-12T13:15:23;23.00;99.90
41395;DHT22;27136;53.810;8.886;2022-07-12T13:17:48;23.10;99.90
41395;DHT22;27136;53.810;8.886;2022-07-12T13:20:14;23.10;99.90
41395;DHT22;27136;53.810;8.886;2022-07-12T13:22:40;22.90;99.90
41395;DHT22;27136;53.810;8.886;2022-07-12T13:25:07;22.90;99.90
41395;DHT22;27136;53.810;8.886;2022-07-12T13:27:33;23.00;99.90
41395;DHT22;27136;53.810;8.886;2022-07-12T13:29:59;23.00;99.90
41395;DHT22;27136;53.810;8.886;2022-07-12T13:32:24;22.80;99.90
41395;DHT22;27136;53.810;8.886;2022-07-12T13:34:50;22.80;99.90
41395;DHT22;27136;53.810;8.886;2022-07-12T13:37:16;22.80;99.90
41395;DHT22;27136;53.810;8.886;2022-07-12T13:39:42;22.90;99.90
41395;DHT22;27136;53.810;8.886;2022-07-12T13:42:26;23.00;99.90
41395;DHT22;27136;53.810;8.886;2022-07-12T13:44:52;23.10;99.90
41395;DHT22;27136;53.810;8.886;2022-07-12T13:47:22;23.10;99.90
41395;DHT22;27136;53.810;8.886;2022-07-12T13:49:49;23.20;99.90
41395;DHT22;27136;53.810;8.886;2022-07-12T13:52:15;23.20;99.90
41395;DHT22;27136;53.810;8.886;2022-07-12T13:54:40;23.20;99.90
41395;DHT22;27136;53.810;8.886;2022-07-12T13:57:09;23.40;99.90
41395;DHT22;27136;53.810;8.886;2022-07-12T13:59:35;23.40;99.90
41395;DHT22;27136;53.810;8.886;2022-07-12T14:02:00;23.50;99.90
41395;DHT22;27136;53.810;8.886;2022-07-12T14:04:26;23.50;99.90
41395;DHT22;27136;53.810;8.886;2022-07-12T14:06:51;23.40;99.90
41395;DHT22;27136;53.810;8.886;2022-07-12T14:09:17;23.50;99.90
41395;DHT22;27136;53.810;8.886;2022-07-12T14:11:42;23.50;99.90
41395;DHT22;27136;53.810;8.886;2022-07-12T14:14:08;23.70;99.90
41395;DHT22;27136;53.810;8.886;2022-07-12T14:16:34;23.50;99.90
41395;DHT22;27136;53.810;8.886;2022-07-12T14:19:00;23.30;99.90
41395;DHT22;27136;53.810;8.886;2022-07-12T14:21:26;23.40;99.90
41395;DHT22;27136;53.810;8.886;2022-07-12T14:23:53;23.60;99.90
41395;DHT22;27136;53.810;8.886;2022-07-12T14:26:19;23.70;99.90
41395;DHT22;27136;53.810;8.886;2022-07-12T14:28:45;23.80;99.90
41395;DHT22;27136;53.810;8.886;2022-07-12T14:31:11;23.80;99.90
41395;DHT22;27136;53.810;8.886;2022-07-12T14:33:37;23.80;99.90
41395;DHT22;27136;53.810;8.886;2022-07-12T14:36:02;23.90;99.90
41395;DHT22;27136;53.810;8.886;2022-07-12T14:38:28;23.90;99.90
41395;DHT22;27136;53.810;8.886;2022-07-12T14:40:54;23.80;99.90
41395;DHT22;27136;53.810;8.886;2022-07-12T14:43:20;23.80;99.90
41395;DHT22;27136;53.810;8.886;2022-07-12T14:45:46;23.90;99.90
41395;DHT22;27136;53.810;8.886;2022-07-12T14:48:11;24.00;99.90
41395;DHT22;27136;53.810;8.886;2022-07-12T14:50:38;24.00;99.90
41395;DHT22;27136;53.810;8.886;2022-07-12T14:53:04;24.10;99.90
41395;DHT22;27136;53.810;8.886;2022-07-12T14:55:29;24.20;99.90
41395;DHT22;27136;53.810;8.886;2022-07-12T14:57:55;24.00;99.90
41395;DHT22;27136;53.810;8.886;2022-07-12T15:00:22;24.00;99.90
41395;DHT22;27136;53.810;8.886;2022-07-12T15:02:48;24.10;99.90
41395;DHT22;27136;53.810;8.886;2022-07-12T15:05:14;24.10;99.90
41395;DHT22;27136;53.810;8.886;2022-07-12T15:07:40;24.30;99.90
41395;DHT22;27136;53.810;8.886;2022-07-12T15:10:05;24.20;99.90
41395;DHT22;27136;53.810;8.886;2022-07-12T15:12:31;24.30;99.90
41395;DHT22;27136;53.810;8.886;2022-07-12T15:14:58;24.50;99.90
41395;DHT22;27136;53.810;8.886;2022-07-12T15:17:23;24.60;99.90
41395;DHT22;27136;53.810;8.886;2022-07-12T15:19:49;24.60;99.90
41395;DHT22;27136;53.810;8.886;2022-07-12T15:22:15;24.70;99.90
41395;DHT22;27136;53.810;8.886;2022-07-12T15:24:41;24.70;99.90
41395;DHT22;27136;53.810;8.886;2022-07-12T15:27:07;24.70;99.90
41395;DHT22;27136;53.810;8.886;2022-07-12T15:29:37;24.70;99.90
41395;DHT22;27136;53.810;8.886;2022-07-12T15:32:05;24.50;99.90
41395;DHT22;27136;53.810;8.886;2022-07-12T15:34:30;24.60;99.90
41395;DHT22;27136;53.810;8.886;2022-07-12T15:36:56;24.70;99.90
41395;DHT22;27136;53.810;8.886;2022-07-12T15:39:21;24.70;99.90
41395;DHT22;27136;53.810;8.886;2022-07-12T15:41:47;24.70;99.90
41395;DHT22;27136;53.810;8.886;2022-07-12T15:44:13;24.80;99.90
41395;DHT22;27136;53.810;8.886;2022-07-12T15:46:39;25.00;99.90
41395;DHT22;27136;53.810;8.886;2022-07-12T15:49:04;25.20;99.90